sensor_id;sensor_type;location;lat;lon;timestamp;pressure;altitude;pressure_sealevel;temperature;humidity
42285;BME280;27942;47.510;18.966;2022-12-29T00:00:48;-15233.22;;;1.19;100.00
42285;BME280;27942;47.510;18.966;2022-12-29T00:03:14;-15232.75;;;1.17;100.00
42285;BME280;27942;47.510;18.966;2022-12-29T00:05:39;-15231.84;;;1.14;100.00
42285;BME280;27942;47.510;18.966;2022-12-29T00:08:04;-15232.75;;;1.17;100.00
42285;BME280;27942;47.510;18.966;2022-12-29T00:10:29;-15222.84;;;0.85;100.00
42285;BME280;27942;47.510;18.966;2022-12-29T00:12:55;-15215.56;;;0.61;100.00
42285;BME280;27942;47.510;18.966;2022-12-29T00:15:39;-15210.75;;;0.45;100.00
42285;BME280;27942;47.510;18.966;2022-12-29T00:18:05;-15209.34;;;0.40;100.00
42285;BME280;27942;47.510;18.966;2022-12-29T00:20:33;-15205.19;;;0.27;100.00
42285;BME280;27942;47.510;18.966;2022-12-29T00:23:17;-15202.22;;;0.17;100.00
42285;BME280;27942;47.510;18.966;2022-12-29T00:26:03;-15201.91;;;0.16;100.00
42285;BME280;27942;47.510;18.966;2022-12-29T00:28:47;-15206.88;;;0.32;100.00
42285;BME280;27942;47.510;18.966;2022-12-29T00:31:31;-15205.94;;;0.29;100.00
42285;BME280;27942;47.510;18.966;2022-12-29T00:34:15;-15205.63;;;0.28;100.00
42285;BME280;27942;47.510;18.966;2022-12-29T00:36:58;-15212.47;;;0.50;100.00
42285;BME280;27942;47.510;18.966;2022-12-29T00:39:24;-15216.03;;;0.62;100.00
42285;BME280;27942;47.510;18.966;2022-12-29T00:42:08;-15210.75;;;0.45;100.00
42285;BME280;27942;47.510;18.966;2022-12-29T00:44:53;-15206.41;;;0.31;100.00
42285;BME280;27942;47.510;18.966;2022-12-29T00:47:18;-15201.63;;;0.15;100.00
42285;BME280;27942;47.510;18.966;2022-12-29T00:49:44;-15197.88;;;0.03;100.00
42285;BME280;27942;47.510;18.966;2022-12-29T00:52:12;-15193.56;;;-0.12;100.00
42285;BME280;27942;47.510;18.966;2022-12-29T00:54:39;-15190.91;;;-0.20;100.00
42285;BME280;27942;47.510;18.966;2022-12-29T00:57:06;-15190.13;;;-0.23;100.00
42285;BME280;27942;47.510;18.966;2022-12-29T00:59:34;-15187.34;;;-0.32;100.00
42285;BME280;27942;47.510;18.966;2022-12-29T01:02:00;-15181.47;;;-0.52;100.00
42285;BME280;27942;47.510;18.966;2022-12-29T01:04:26;-15181.16;;;-0.53;100.00
42285;BME280;27942;47.510;18.966;2022-12-29T01:06:52;-15179.13;;;-0.59;100.00
42285;BME280;27942;47.510;18.966;2022-12-29T01:09:18;-15176.66;;;-0.67;100.00
42285;BME280;27942;47.510;18.966;2022-12-29T01:12:03;-15172.78;;;-0.80;100.00
42285;BME280;27942;47.510;18.966;2022-12-29T01:14:29;-15174.34;;;-0.75;100.00
42285;BME280;27942;47.510;18.966;2022-12-29T01:16:55;-15172.78;;;-0.80;100.00
42285;BME280;27942;47.510;18.966;2022-12-29T01:19:21;-15176.50;;;-0.68;100.00
42285;BME280;27942;47.510;18.966;2022-12-29T01:21:47;-15176.19;;;-0.69;100.00
42285;BME280;27942;47.510;18.966;2022-12-29T01:24:14;-15178.97;;;-0.60;100.00
42285;BME280;27942;47.510;18.966;2022-12-29T01:26:40;-15178.06;;;-0.63;100.00
42285;BME280;27942;47.510;18.966;2022-12-29T01:29:05;-15177.44;;;-0.65;100.00
42285;BME280;27942;47.510;18.966;2022-12-29T01:31:30;-15177.13;;;-0.66;100.00
42285;BME280;27942;47.510;18.966;2022-12-29T01:33:56;-15174.66;;;-0.74;100.00
42285;BME280;27942;47.510;18.966;2022-12-29T01:36:21;-15176.66;;;-0.67;100.00
42285;BME280;27942;47.510;18.966;2022-12-29T01:38:47;-15175.88;;;-0.70;100.00
42285;BME280;27942;47.510;18.966;2022-12-29T01:41:14;-15171.69;;;-0.84;100.00
42285;BME280;27942;47.510;18.966;2022-12-29T01:43:48;-15173.09;;;-0.79;100.00
42285;BME280;27942;47.510;18.966;2022-12-29T01:46:27;-15173.72;;;-0.77;100.00
42285;BME280;27942;47.510;18.966;2022-12-29T01:51:25;-15169.69;;;-0.90;100.00
42285;BME280;27942;47.510;18.966;2022-12-29T01:53:53;-15170.00;;;-0.89;100.00
42285;BME280;27942;47.510;18.966;2022-12-29T01:56:21;-15168.13;;;-0.95;100.00
42285;BME280;27942;47.510;18.966;2022-12-29T01:58:49;-15169.84;;;-0.90;100.00
42285;BME280;27942;47.510;18.966;2022-12-29T02:01:18;-15172.00;;;-0.83;100.00
42285;BME280;27942;47.510;18.966;2022-12-29T02:03:44;-15170.16;;;-0.89;100.00
42285;BME280;27942;47.510;18.966;2022-12-29T02:06:18;-15166.28;;;-1.01;100.00
42285;BME280;27942;47.510;18.966;2022-12-29T02:08:46;-15166.88;;;-0.99;100.00
42285;BME280;27942;47.510;18.966;2022-12-29T02:11:12;-15163.03;;;-1.12;100.00
42285;BME280;27942;47.510;18.966;2022-12-29T02:13:38;-15160.06;;;-1.22;100.00
42285;BME280;27942;47.510;18.966;2022-12-29T02:27:31;-15159.59;;;-1.23;100.00
42285;BME280;27942;47.510;18.966;2022-12-29T02:33:13;-15156.50;;;-1.34;100.00
42285;BME280;27942;47.510;18.966;2022-12-29T02:42:09;-15152.31;;;-1.47;100.00
42285;BME280;27942;47.510;18.966;2022-12-29T02:44:16;-15150.78;;;-1.52;100.00
42285;BME280;27942;47.510;18.966;2022-12-29T02:46:53;-15154.19;;;-1.41;100.00
42285;BME280;27942;47.510;18.966;2022-12-29T02:49:54;-15154.50;;;-1.40;100.00
42285;BME280;27942;47.510;18.966;2022-12-29T02:52:26;-15153.25;;;-1.44;100.00
42285;BME280;27942;47.510;18.966;2022-12-29T02:54:56;-15151.41;;;-1.50;100.00
42285;BME280;27942;47.510;18.966;2022-12-29T02:59:52;-15145.50;;;-1.70;100.00
42285;BME280;27942;47.510;18.966;2022-12-29T03:02:48;-15149.53;;;-1.57;100.00
42285;BME280;27942;47.510;18.966;2022-12-29T03:08:58;-15149.69;;;-1.56;100.00
42285;BME280;27942;47.510;18.966;2022-12-29T03:11:09;-15149.84;;;-1.56;100.00
42285;BME280;27942;47.510;18.966;2022-12-29T03:14:06;-15151.72;;;-1.49;100.00
42285;BME280;27942;47.510;18.966;2022-12-29T03:17:09;-15151.84;;;-1.49;100.00
42285;BME280;27942;47.510;18.966;2022-12-29T03:19:38;-15149.53;;;-1.57;100.00
42285;BME280;27942;47.510;18.966;2022-12-29T03:22:08;-15147.06;;;-1.65;100.00
42285;BME280;27942;47.510;18.966;2022-12-29T03:25:44;-15145.50;;;-1.70;100.00
42285;BME280;27942;47.510;18.966;2022-12-29T03:27:47;-15144.09;;;-1.74;100.00
42285;BME280;27942;47.510;18.966;2022-12-29T03:30:14;-15143.03;;;-1.78;100.00
42285;BME280;27942;47.510;18.966;2022-12-29T03:32:49;-15145.19;;;-1.71;100.00
42285;BME280;27942;47.510;18.966;2022-12-29T03:35:17;-15145.66;;;-1.69;100.00
42285;BME280;27942;47.510;18.966;2022-12-29T03:38:09;-15146.28;;;-1.67;100.00
42285;BME280;27942;47.510;18.966;2022-12-29T03:40:38;-15144.88;;;-1.72;100.00
42285;BME280;27942;47.510;18.966;2022-12-29T03:43:05;-15146.44;;;-1.67;100.00
42285;BME280;27942;47.510;18.966;2022-12-29T03:45:31;-15144.56;;;-1.73;100.00
42285;BME280;27942;47.510;18.966;2022-12-29T03:47:56;-15142.09;;;-1.81;100.00
42285;BME280;27942;47.510;18.966;2022-12-29T03:50:21;-15141.47;;;-1.83;100.00
42285;BME280;27942;47.510;18.966;2022-12-29T03:52:47;-15144.28;;;-1.74;100.00
42285;BME280;27942;47.510;18.966;2022-12-29T03:55:12;-15143.66;;;-1.76;100.00
42285;BME280;27942;47.510;18.966;2022-12-29T03:57:38;-15145.19;;;-1.71;100.00
42285;BME280;27942;47.510;18.966;2022-12-29T04:00:04;-15147.38;;;-1.64;100.00
42285;BME280;27942;47.510;18.966;2022-12-29T04:02:30;-15146.59;;;-1.66;100.00
42285;BME280;27942;47.510;18.966;2022-12-29T04:04:56;-15149.38;;;-1.57;100.00
42285;BME280;27942;47.510;18.966;2022-12-29T04:07:21;-15145.81;;;-1.69;100.00
42285;BME280;27942;47.510;18.966;2022-12-29T04:09:46;-15146.44;;;-1.67;100.00
42285;BME280;27942;47.510;18.966;2022-12-29T04:12:12;-15146.91;;;-1.65;100.00
42285;BME280;27942;47.510;18.966;2022-12-29T04:14:38;-15146.59;;;-1.66;100.00
42285;BME280;27942;47.510;18.966;2022-12-29T04:17:03;-15149.38;;;-1.57;100.00
42285;BME280;27942;47.510;18.966;2022-12-29T04:19:29;-15149.84;;;-1.56;100.00
42285;BME280;27942;47.510;18.966;2022-12-29T04:21:54;-15146.91;;;-1.65;100.00
42285;BME280;27942;47.510;18.966;2022-12-29T04:24:19;-15144.28;;;-1.74;100.00
42285;BME280;27942;47.510;18.966;2022-12-29T04:26:45;-15147.97;;;-1.62;100.00
42285;BME280;27942;47.510;18.966;2022-12-29T04:29:10;-15150.00;;;-1.55;100.00
42285;BME280;27942;47.510;18.966;2022-12-29T04:31:36;-15147.53;;;-1.63;100.00
42285;BME280;27942;47.510;18.966;2022-12-29T04:34:01;-15149.69;;;-1.56;100.00
42285;BME280;27942;47.510;18.966;2022-12-29T04:36:27;-15149.53;;;-1.57;100.00
42285;BME280;27942;47.510;18.966;2022-12-29T04:38:52;-15147.69;;;-1.63;100.00
42285;BME280;27942;47.510;18.966;2022-12-29T04:41:17;-15149.84;;;-1.56;100.00
42285;BME280;27942;47.510;18.966;2022-12-29T04:43:43;-15147.53;;;-1.63;100.00
42285;BME280;27942;47.510;18.966;2022-12-29T04:46:08;-15145.66;;;-1.69;100.00
42285;BME280;27942;47.510;18.966;2022-12-29T04:48:34;-15147.97;;;-1.62;100.00
42285;BME280;27942;47.510;18.966;2022-12-29T04:50:59;-15148.75;;;-1.59;100.00
42285;BME280;27942;47.510;18.966;2022-12-29T04:53:24;-15146.44;;;-1.67;100.00
42285;BME280;27942;47.510;18.966;2022-12-29T04:55:51;-15147.84;;;-1.62;100.00
42285;BME280;27942;47.510;18.966;2022-12-29T04:58:17;-15150.94;;;-1.52;100.00
42285;BME280;27942;47.510;18.966;2022-12-29T05:00:43;-15149.06;;;-1.58;100.00
42285;BME280;27942;47.510;18.966;2022-12-29T05:03:08;-15152.16;;;-1.48;100.00
42285;BME280;27942;47.510;18.966;2022-12-29T05:05:33;-15155.41;;;-1.37;100.00
42285;BME280;27942;47.510;18.966;2022-12-29T05:07:59;-15156.03;;;-1.35;100.00
42285;BME280;27942;47.510;18.966;2022-12-29T05:10:24;-15162.56;;;-1.14;100.00
42285;BME280;27942;47.510;18.966;2022-12-29T05:12:49;-15161.94;;;-1.16;100.00
42285;BME280;27942;47.510;18.966;2022-12-29T05:15:15;-15162.25;;;-1.15;100.00
42285;BME280;27942;47.510;18.966;2022-12-29T05:17:40;-15160.69;;;-1.20;100.00
42285;BME280;27942;47.510;18.966;2022-12-29T05:20:06;-15157.91;;;-1.29;100.00
42285;BME280;27942;47.510;18.966;2022-12-29T05:22:32;-15157.28;;;-1.31;100.00
42285;BME280;27942;47.510;18.966;2022-12-29T05:24:57;-15152.31;;;-1.47;100.00
42285;BME280;27942;47.510;18.966;2022-12-29T05:27:23;-15151.56;;;-1.50;100.00
42285;BME280;27942;47.510;18.966;2022-12-29T05:29:48;-15151.09;;;-1.51;100.00
42285;BME280;27942;47.510;18.966;2022-12-29T05:32:13;-15146.13;;;-1.68;100.00
42285;BME280;27942;47.510;18.966;2022-12-29T05:34:39;-15146.13;;;-1.68;100.00
42285;BME280;27942;47.510;18.966;2022-12-29T05:37:04;-15147.53;;;-1.63;100.00
42285;BME280;27942;47.510;18.966;2022-12-29T05:39:29;-15144.72;;;-1.72;100.00
42285;BME280;27942;47.510;18.966;2022-12-29T05:41:55;-15145.50;;;-1.70;100.00
42285;BME280;27942;47.510;18.966;2022-12-29T05:44:20;-15143.66;;;-1.76;100.00
42285;BME280;27942;47.510;18.966;2022-12-29T05:46:46;-15143.03;;;-1.78;100.00
42285;BME280;27942;47.510;18.966;2022-12-29T05:49:11;-15143.97;;;-1.75;100.00
42285;BME280;27942;47.510;18.966;2022-12-29T05:51:37;-15145.34;;;-1.70;100.00
42285;BME280;27942;47.510;18.966;2022-12-29T05:54:02;-15143.50;;;-1.76;100.00
42285;BME280;27942;47.510;18.966;2022-12-29T05:56:28;-15145.19;;;-1.71;100.00
42285;BME280;27942;47.510;18.966;2022-12-29T05:58:53;-15144.88;;;-1.72;100.00
42285;BME280;27942;47.510;18.966;2022-12-29T06:01:18;-15144.56;;;-1.73;100.00
42285;BME280;27942;47.510;18.966;2022-12-29T06:03:44;-15147.38;;;-1.64;100.00
42285;BME280;27942;47.510;18.966;2022-12-29T06:06:09;-15145.81;;;-1.69;100.00
42285;BME280;27942;47.510;18.966;2022-12-29T06:08:34;-15142.41;;;-1.80;100.00
42285;BME280;27942;47.510;18.966;2022-12-29T06:11:00;-15139.63;;;-1.89;100.00
42285;BME280;27942;47.510;18.966;2022-12-29T06:13:25;-15141.63;;;-1.83;100.00
42285;BME280;27942;47.510;18.966;2022-12-29T06:15:51;-15142.09;;;-1.81;100.00
42285;BME280;27942;47.510;18.966;2022-12-29T06:18:16;-15142.41;;;-1.80;100.00
42285;BME280;27942;47.510;18.966;2022-12-29T06:20:42;-15140.25;;;-1.87;100.00
42285;BME280;27942;47.510;18.966;2022-12-29T06:23:07;-15141.31;;;-1.84;100.00
42285;BME280;27942;47.510;18.966;2022-12-29T06:25:33;-15138.84;;;-1.92;100.00
42285;BME280;27942;47.510;18.966;2022-12-29T06:28:01;-15140.25;;;-1.87;100.00
42285;BME280;27942;47.510;18.966;2022-12-29T06:30:27;-15141.63;;;-1.83;100.00
42285;BME280;27942;47.510;18.966;2022-12-29T06:32:52;-15139.47;;;-1.90;100.00
42285;BME280;27942;47.510;18.966;2022-12-29T06:35:18;-15138.06;;;-1.94;100.00
42285;BME280;27942;47.510;18.966;2022-12-29T06:37:43;-15140.53;;;-1.86;100.00
42285;BME280;27942;47.510;18.966;2022-12-29T06:40:09;-15141.78;;;-1.82;100.00
42285;BME280;27942;47.510;18.966;2022-12-29T06:42:35;-15139.78;;;-1.89;100.00
42285;BME280;27942;47.510;18.966;2022-12-29T06:45:01;-15135.91;;;-2.01;100.00
42285;BME280;27942;47.510;18.966;2022-12-29T06:47:26;-15138.38;;;-1.93;100.00
42285;BME280;27942;47.510;18.966;2022-12-29T06:49:52;-15135.91;;;-2.01;100.00
42285;BME280;27942;47.510;18.966;2022-12-29T06:52:17;-15138.22;;;-1.94;100.00
42285;BME280;27942;47.510;18.966;2022-12-29T06:54:42;-15137.59;;;-1.96;100.00
42285;BME280;27942;47.510;18.966;2022-12-29T06:57:08;-15139.78;;;-1.89;100.00
42285;BME280;27942;47.510;18.966;2022-12-29T06:59:33;-15144.09;;;-1.74;100.00
42285;BME280;27942;47.510;18.966;2022-12-29T07:01:58;-15144.88;;;-1.72;100.00
42285;BME280;27942;47.510;18.966;2022-12-29T07:04:24;-15143.34;;;-1.77;100.00
42285;BME280;27942;47.510;18.966;2022-12-29T07:06:49;-15148.59;;;-1.60;100.00
42285;BME280;27942;47.510;18.966;2022-12-29T07:09:15;-15148.59;;;-1.60;100.00
42285;BME280;27942;47.510;18.966;2022-12-29T07:11:40;-15150.78;;;-1.52;100.00
42285;BME280;27942;47.510;18.966;2022-12-29T07:14:05;-15151.72;;;-1.49;100.00
42285;BME280;27942;47.510;18.966;2022-12-29T07:16:31;-15150.63;;;-1.53;100.00
42285;BME280;27942;47.510;18.966;2022-12-29T07:18:57;-15152.31;;;-1.47;100.00
42285;BME280;27942;47.510;18.966;2022-12-29T07:21:24;-15157.59;;;-1.30;100.00
42285;BME280;27942;47.510;18.966;2022-12-29T07:23:49;-15160.06;;;-1.22;100.00
42285;BME280;27942;47.510;18.966;2022-12-29T07:26:15;-15160.38;;;-1.21;100.00
42285;BME280;27942;47.510;18.966;2022-12-29T07:28:43;-15161.94;;;-1.16;100.00
42285;BME280;27942;47.510;18.966;2022-12-29T07:31:19;-15164.09;;;-1.09;100.00
42285;BME280;27942;47.510;18.966;2022-12-29T07:33:45;-15163.94;;;-1.09;100.00
42285;BME280;27942;47.510;18.966;2022-12-29T07:36:12;-15164.41;;;-1.08;100.00
42285;BME280;27942;47.510;18.966;2022-12-29T07:38:38;-15165.19;;;-1.05;100.00
42285;BME280;27942;47.510;18.966;2022-12-29T07:41:04;-15167.19;;;-0.98;100.00
42285;BME280;27942;47.510;18.966;2022-12-29T07:43:29;-15169.06;;;-0.92;100.00
42285;BME280;27942;47.510;18.966;2022-12-29T07:45:54;-15170.47;;;-0.88;100.00
42285;BME280;27942;47.510;18.966;2022-12-29T07:48:21;-15172.78;;;-0.80;100.00
42285;BME280;27942;47.510;18.966;2022-12-29T07:50:46;-15175.56;;;-0.71;100.00
42285;BME280;27942;47.510;18.966;2022-12-29T07:53:11;-15173.56;;;-0.78;100.00
42285;BME280;27942;47.510;18.966;2022-12-29T07:55:37;-15175.09;;;-0.72;100.00
42285;BME280;27942;47.510;18.966;2022-12-29T07:58:02;-15174.03;;;-0.76;100.00
42285;BME280;27942;47.510;18.966;2022-12-29T08:00:28;-15178.06;;;-0.63;100.00
42285;BME280;27942;47.510;18.966;2022-12-29T08:02:53;-15178.50;;;-0.61;100.00
42285;BME280;27942;47.510;18.966;2022-12-29T08:05:18;-15182.84;;;-0.47;100.00
42285;BME280;27942;47.510;18.966;2022-12-29T08:07:44;-15183.31;;;-0.45;100.00
42285;BME280;27942;47.510;18.966;2022-12-29T08:10:11;-15182.22;;;-0.49;100.00
42285;BME280;27942;47.510;18.966;2022-12-29T08:12:40;-15185.81;;;-0.37;100.00
42285;BME280;27942;47.510;18.966;2022-12-29T08:15:08;-15183.78;;;-0.44;100.00
42285;BME280;27942;47.510;18.966;2022-12-29T08:17:34;-15181.47;;;-0.52;100.00
42285;BME280;27942;47.510;18.966;2022-12-29T08:19:59;-15182.69;;;-0.47;100.00
42285;BME280;27942;47.510;18.966;2022-12-29T08:22:24;-15179.13;;;-0.59;100.00
42285;BME280;27942;47.510;18.966;2022-12-29T08:24:50;-15175.56;;;-0.71;100.00
42285;BME280;27942;47.510;18.966;2022-12-29T08:27:15;-15179.44;;;-0.58;100.00
42285;BME280;27942;47.510;18.966;2022-12-29T08:29:41;-15181.78;;;-0.50;100.00
42285;BME280;27942;47.510;18.966;2022-12-29T08:32:06;-15183.47;;;-0.45;100.00
42285;BME280;27942;47.510;18.966;2022-12-29T08:34:32;-15187.03;;;-0.33;100.00
42285;BME280;27942;47.510;18.966;2022-12-29T08:36:57;-15185.66;;;-0.38;100.00
42285;BME280;27942;47.510;18.966;2022-12-29T08:39:22;-15186.56;;;-0.35;100.00
42285;BME280;27942;47.510;18.966;2022-12-29T08:41:48;-15184.88;;;-0.40;100.00
42285;BME280;27942;47.510;18.966;2022-12-29T08:44:13;-15183.78;;;-0.44;100.00
42285;BME280;27942;47.510;18.966;2022-12-29T08:46:39;-15181.16;;;-0.53;100.00
42285;BME280;27942;47.510;18.966;2022-12-29T08:49:04;-15181.78;;;-0.50;100.00
42285;BME280;27942;47.510;18.966;2022-12-29T08:51:29;-15180.22;;;-0.56;100.00
42285;BME280;27942;47.510;18.966;2022-12-29T08:53:55;-15182.09;;;-0.49;100.00
42285;BME280;27942;47.510;18.966;2022-12-29T08:56:20;-15180.22;;;-0.56;100.00
42285;BME280;27942;47.510;18.966;2022-12-29T08:58:46;-15179.59;;;-0.58;100.00
42285;BME280;27942;47.510;18.966;2022-12-29T09:01:11;-15180.22;;;-0.56;100.00
42285;BME280;27942;47.510;18.966;2022-12-29T09:03:36;-15181.94;;;-0.50;100.00
42285;BME280;27942;47.510;18.966;2022-12-29T09:06:02;-15182.84;;;-0.47;100.00
42285;BME280;27942;47.510;18.966;2022-12-29T09:08:28;-15185.34;;;-0.39;100.00
42285;BME280;27942;47.510;18.966;2022-12-29T09:10:53;-15187.66;;;-0.31;100.00
42285;BME280;27942;47.510;18.966;2022-12-29T09:13:19;-15185.34;;;-0.39;100.00
42285;BME280;27942;47.510;18.966;2022-12-29T09:15:44;-15193.25;;;-0.13;100.00
42285;BME280;27942;47.510;18.966;2022-12-29T09:18:11;-15190.44;;;-0.22;100.00
42285;BME280;27942;47.510;18.966;2022-12-29T09:20:36;-15189.53;;;-0.25;100.00
42285;BME280;27942;47.510;18.966;2022-12-29T09:23:02;-15191.69;;;-0.18;100.00
42285;BME280;27942;47.510;18.966;2022-12-29T09:25:28;-15187.03;;;-0.33;100.00
42285;BME280;27942;47.510;18.966;2022-12-29T09:27:54;-15191.22;;;-0.19;100.00
42285;BME280;27942;47.510;18.966;2022-12-29T09:30:21;-15191.69;;;-0.18;100.00
42285;BME280;27942;47.510;18.966;2022-12-29T09:32:48;-15189.81;;;-0.24;100.00
42285;BME280;27942;47.510;18.966;2022-12-29T09:35:14;-15187.03;;;-0.33;100.00
42285;BME280;27942;47.510;18.966;2022-12-29T09:37:40;-15189.66;;;-0.24;100.00
42285;BME280;27942;47.510;18.966;2022-12-29T09:40:07;-15189.53;;;-0.25;100.00
42285;BME280;27942;47.510;18.966;2022-12-29T09:43:00;-15188.75;;;-0.28;100.00
42285;BME280;27942;47.510;18.966;2022-12-29T09:45:44;-15189.53;;;-0.25;100.00
42285;BME280;27942;47.510;18.966;2022-12-29T09:48:17;-15192.78;;;-0.14;100.00
42285;BME280;27942;47.510;18.966;2022-12-29T09:50:47;-15196.03;;;-0.04;100.00
42285;BME280;27942;47.510;18.966;2022-12-29T09:55:51;-15195.25;;;-0.06;100.00
42285;BME280;27942;47.510;18.966;2022-12-29T09:58:30;-15196.66;;;-0.02;100.00
42285;BME280;27942;47.510;18.966;2022-12-29T10:03:52;-15199.75;;;0.09;100.00
42285;BME280;27942;47.510;18.966;2022-12-29T10:09:15;-15201.63;;;0.15;100.00
42285;BME280;27942;47.510;18.966;2022-12-29T10:17:38;-15205.31;;;0.27;100.00
42285;BME280;27942;47.510;18.966;2022-12-29T10:25:38;-15208.75;;;0.38;100.00
42285;BME280;27942;47.510;18.966;2022-12-29T10:28:17;-15208.44;;;0.37;100.00
42285;BME280;27942;47.510;18.966;2022-12-29T10:30:46;-15211.84;;;0.48;100.00
42285;BME280;27942;47.510;18.966;2022-12-29T10:33:17;-15213.38;;;0.54;100.00
42285;BME280;27942;47.510;18.966;2022-12-29T10:35:44;-15217.56;;;0.67;100.00
42285;BME280;27942;47.510;18.966;2022-12-29T10:38:13;-15215.56;;;0.61;100.00
42285;BME280;27942;47.510;18.966;2022-12-29T10:40:49;-15214.94;;;0.59;100.00
42285;BME280;27942;47.510;18.966;2022-12-29T10:43:26;-15215.88;;;0.62;100.00
42285;BME280;27942;47.510;18.966;2022-12-29T10:46:02;-15211.69;;;0.48;100.00
42285;BME280;27942;47.510;18.966;2022-12-29T10:48:33;-15219.91;;;0.75;100.00
42285;BME280;27942;47.510;18.966;2022-12-29T10:51:02;-15222.69;;;0.84;100.00
42285;BME280;27942;47.510;18.966;2022-12-29T10:53:53;-15218.03;;;0.69;100.00
42285;BME280;27942;47.510;18.966;2022-12-29T10:56:34;-15217.09;;;0.66;100.00
42285;BME280;27942;47.510;18.966;2022-12-29T10:59:21;-15214.47;;;0.57;100.00
42285;BME280;27942;47.510;18.966;2022-12-29T11:02:04;-15216.34;;;0.63;100.00
42285;BME280;27942;47.510;18.966;2022-12-29T11:05:02;-15219.13;;;0.72;100.00
42285;BME280;27942;47.510;18.966;2022-12-29T11:07:30;-15221.44;;;0.80;100.00
42285;BME280;27942;47.510;18.966;2022-12-29T11:09:55;-15220.06;;;0.75;100.00
42285;BME280;27942;47.510;18.966;2022-12-29T11:12:40;-15220.69;;;0.77;100.00
42285;BME280;27942;47.510;18.966;2022-12-29T11:17:43;-15221.28;;;0.80;100.00
42285;BME280;27942;47.510;18.966;2022-12-29T11:20:38;-15222.53;;;0.84;100.00
42285;BME280;27942;47.510;18.966;2022-12-29T11:23:20;-15222.84;;;0.85;100.00
42285;BME280;27942;47.510;18.966;2022-12-29T11:25:46;-15223.78;;;0.88;100.00
42285;BME280;27942;47.510;18.966;2022-12-29T11:28:16;-15223.31;;;0.86;100.00
42285;BME280;27942;47.510;18.966;2022-12-29T11:30:42;-15222.53;;;0.84;100.00
42285;BME280;27942;47.510;18.966;2022-12-29T11:33:08;-15224.72;;;0.91;100.00
42285;BME280;27942;47.510;18.966;2022-12-29T11:35:36;-15227.19;;;0.99;100.00
42285;BME280;27942;47.510;18.966;2022-12-29T11:38:04;-15232.00;;;1.15;100.00
42285;BME280;27942;47.510;18.966;2022-12-29T11:40:30;-15247.97;;;1.67;100.00
42285;BME280;27942;47.510;18.966;2022-12-29T11:43:00;-15253.09;;;1.84;100.00
42285;BME280;27942;47.510;18.966;2022-12-29T11:45:30;-15249.50;;;1.72;100.00
42285;BME280;27942;47.510;18.966;2022-12-29T11:48:01;-15241.44;;;1.46;100.00
42285;BME280;27942;47.510;18.966;2022-12-29T11:50:32;-15240.81;;;1.44;100.00
42285;BME280;27942;47.510;18.966;2022-12-29T11:53:05;-15245.00;;;1.58;100.00
42285;BME280;27942;47.510;18.966;2022-12-29T11:55:33;-15245.94;;;1.61;100.00
42285;BME280;27942;47.510;18.966;2022-12-29T11:58:00;-15244.41;;;1.56;100.00
42285;BME280;27942;47.510;18.966;2022-12-29T12:00:28;-15241.59;;;1.46;100.00
42285;BME280;27942;47.510;18.966;2022-12-29T12:02:59;-15240.97;;;1.44;100.00
42285;BME280;27942;47.510;18.966;2022-12-29T12:05:38;-15241.13;;;1.45;100.00
42285;BME280;27942;47.510;18.966;2022-12-29T12:08:20;-15241.44;;;1.46;100.00
42285;BME280;27942;47.510;18.966;2022-12-29T12:11:19;-15241.44;;;1.46;100.00
42285;BME280;27942;47.510;18.966;2022-12-29T12:13:59;-15239.13;;;1.38;100.00
42285;BME280;27942;47.510;18.966;2022-12-29T12:16:39;-15238.97;;;1.38;100.00
42285;BME280;27942;47.510;18.966;2022-12-29T12:21:42;-15244.09;;;1.54;100.00
42285;BME280;27942;47.510;18.966;2022-12-29T12:46:38;-15242.22;;;1.48;100.00
42285;BME280;27942;47.510;18.966;2022-12-29T12:55:30;-15234.78;;;1.24;100.00
42285;BME280;27942;47.510;18.966;2022-12-29T12:58:25;-15233.09;;;1.18;100.00
42285;BME280;27942;47.510;18.966;2022-12-29T13:01:18;-15232.94;;;1.18;100.00
42285;BME280;27942;47.510;18.966;2022-12-29T13:06:59;-15225.94;;;0.95;100.00
42285;BME280;27942;47.510;18.966;2022-12-29T13:22:50;-15210.28;;;0.43;100.00
42285;BME280;27942;47.510;18.966;2022-12-29T13:28:57;-15207.19;;;0.33;100.00
42285;BME280;27942;47.510;18.966;2022-12-29T13:31:28;-15205.47;;;0.28;100.00
42285;BME280;27942;47.510;18.966;2022-12-29T13:34:44;-15204.72;;;0.25;100.00
42285;BME280;27942;47.510;18.966;2022-12-29T13:36:53;-15202.22;;;0.17;100.00
42285;BME280;27942;47.510;18.966;2022-12-29T13:39:24;-15202.69;;;0.18;100.00
42285;BME280;27942;47.510;18.966;2022-12-29T13:41:53;-15201.28;;;0.14;100.00
42285;BME280;27942;47.510;18.966;2022-12-29T13:44:23;-15202.53;;;0.18;100.00
42285;BME280;27942;47.510;18.966;2022-12-29T13:46:50;-15203.16;;;0.20;100.00
42285;BME280;27942;47.510;18.966;2022-12-29T13:49:22;-15201.47;;;0.14;100.00
42285;BME280;27942;47.510;18.966;2022-12-29T13:51:55;-15198.34;;;0.04;100.00
42285;BME280;27942;47.510;18.966;2022-12-29T13:54:46;-15197.88;;;0.03;100.00
42285;BME280;27942;47.510;18.966;2022-12-29T14:00:20;-15198.97;;;0.06;100.00
42285;BME280;27942;47.510;18.966;2022-12-29T14:08:03;-15197.59;;;0.02;100.00
42285;BME280;27942;47.510;18.966;2022-12-29T14:10:34;-15195.56;;;-0.05;100.00
42285;BME280;27942;47.510;18.966;2022-12-29T14:13:21;-15192.94;;;-0.14;100.00
42285;BME280;27942;47.510;18.966;2022-12-29T14:15:59;-15192.31;;;-0.16;100.00
42285;BME280;27942;47.510;18.966;2022-12-29T14:18:26;-15190.28;;;-0.22;100.00
42285;BME280;27942;47.510;18.966;2022-12-29T14:20:56;-15187.34;;;-0.32;100.00
42285;BME280;27942;47.510;18.966;2022-12-29T14:28:33;-15185.81;;;-0.37;100.00
42285;BME280;27942;47.510;18.966;2022-12-29T14:34:14;-15183.94;;;-0.43;100.00
42285;BME280;27942;47.510;18.966;2022-12-29T14:36:34;-15183.94;;;-0.43;100.00
42285;BME280;27942;47.510;18.966;2022-12-29T14:39:00;-15185.34;;;-0.39;100.00
42285;BME280;27942;47.510;18.966;2022-12-29T14:41:31;-15184.41;;;-0.42;100.00
42285;BME280;27942;47.510;18.966;2022-12-29T14:47:05;-15182.84;;;-0.47;100.00